Latest Weather Observations for Georgetown Airport

IDQ60801

Issued at 5:32 pm EST Friday 9 December 2016 (issued every 30 minutes, with the page automatically refreshed every 10 minutes)

About weather observations | Map of weather stations | Latest weather observations for QLD | Other Formats
Station Details ID: 030124 Name: GEORGETOWN AIRPORT Lat: -18.30 Lon: 143.53 Height: 301.77 m
Data from the previous 72 hours. | See also: Recent months at Georgetown Airport
Date/Time
EST
Temp
°C
App
Temp
°C
Dew
Point
°C
Rel
Hum
%
Delta-T
°C
Wind Press
QNH
hPa
Press
MSL
hPa
Rain since
9am
mm
Dir  Spd
km/h
Gust
km/h
Spd
kts
Gust
kts
09/05:00pm 38.6 37.8 15.0 24 15.1 NE 13 20 7 11 1005.7 - 0.0
09/04:30pm 38.8 37.8 14.6 24 15.3 SW 13 20 7 11 1005.7 - 0.0
09/04:00pm 38.8 38.0 15.2 24 15.1 W 13 17 7 9 1005.7 - 0.0
09/03:30pm 38.3 38.7 15.4 25 14.7 WSW 7 15 4 8 1006.0 - 0.0
09/03:00pm 38.0 38.3 16.9 29 13.8 W 11 22 6 12 1006.6 1004.4 0.0
09/02:30pm 37.2 38.3 16.7 29 13.3 NNW 6 9 3 5 1007.1 - 0.0
09/02:00pm 37.1 38.2 17.1 30 13.0 S 7 13 4 7 1007.8 - 0.0
09/01:30pm 36.5 37.6 18.1 33 12.1 E 9 17 5 9 1008.3 - 0.0
09/01:00pm 36.4 38.5 18.9 35 11.7 N 6 11 3 6 1008.8 - 0.0
09/12:30pm 34.8 35.3 18.4 38 10.8 NNE 13 22 7 12 1009.2 - 0.0
09/12:00pm 34.9 37.0 18.9 39 10.6 N 6 26 3 14 1009.7 1007.5 0.0
09/11:30am 33.6 35.1 18.9 41 9.7 WSW 9 13 5 7 1010.3 - 0.0
09/11:00am 33.0 34.4 19.5 45 9.0 NW 11 24 6 13 1011.0 - 0.0
09/10:30am 32.6 33.6 19.5 46 8.7 WNW 13 24 7 13 1011.4 - 0.0
09/10:00am 31.5 32.8 19.2 48 8.1 NW 11 19 6 10 1011.6 - 0.0
09/09:30am 30.9 31.6 19.6 51 7.5 NNE 15 22 8 12 1011.7 - 0.0
09/09:00am 30.2 30.2 18.9 50 7.4 NNW 17 26 9 14 1011.9 1009.7 0.0
09/08:30am 29.4 29.6 18.5 52 7.1 NNE 15 20 8 11 1012.0 - 0.0
09/08:00am 29.0 29.1 18.4 52 6.9 NNE 15 20 8 11 1011.9 - 0.0
09/07:30am 28.6 29.1 18.4 54 6.6 NNE 13 19 7 10 1011.7 - 0.0
09/07:00am 28.1 28.4 17.9 54 6.5 NNE 13 24 7 13 1011.2 - 0.0
09/06:30am 27.6 27.8 17.7 54 6.3 NNE 13 19 7 10 1010.8 - 0.0
09/06:00am 27.4 26.8 17.6 55 6.3 NE 17 22 9 12 1010.6 1008.4 0.0
09/05:30am 27.7 27.1 17.5 53 6.5 NNE 17 20 9 11 1010.3 - 0.0
09/05:00am 27.9 28.4 18.3 56 6.2 NNE 13 19 7 10 1010.1 - 0.0
09/04:30am 28.3 28.6 18.7 56 6.2 NNE 15 20 8 11 1009.7 - 0.0
09/04:00am 28.5 28.2 18.3 54 6.6 NNE 17 28 9 15 1009.3 - 0.0
09/03:30am 28.9 28.5 18.1 52 7.0 NNE 17 22 9 12 1009.1 - 0.0
09/03:00am 28.8 29.1 18.0 52 7.0 NE 13 17 7 9 1009.0 1006.8 0.0
09/02:30am 29.3 29.7 18.1 51 7.2 NE 13 17 7 9 1008.8 - 0.0
09/02:00am 29.9 29.9 18.0 48 7.7 NE 15 19 8 10 1008.5 - 0.0
09/01:30am 30.4 30.4 18.2 48 7.9 NE 15 20 8 11 1008.5 - 0.0
09/01:00am 30.6 30.9 18.0 47 8.2 ENE 13 17 7 9 1008.8 - 0.0
09/12:30am 31.1 31.7 17.8 45 8.6 ENE 11 17 6 9 1008.8 - 0.0
09/12:00am 31.9 32.4 17.4 42 9.4 ENE 11 19 6 10 1009.0 1006.8 0.0
 
Date/Time
EST
Temp
°C
App
Temp
°C
Dew
Point
°C
Rel
Hum
%
Delta-T
°C
Wind Press
QNH
hPa
Press
MSL
hPa
Rain since
9am
mm
Dir  Spd
km/h
Gust
km/h
Spd
kts
Gust
kts
08/11:30pm 32.7 31.3 16.5 37 10.3 ENE 19 24 10 13 1009.0 - 0.0
08/11:00pm 33.4 32.9 15.8 34 11.2 ENE 13 26 7 14 1009.0 - 0.0
08/10:30pm 34.5 32.7 15.4 32 12.1 NE 19 26 10 14 1008.9 - 0.0
08/10:00pm 34.4 32.8 12.7 27 13.2 E 13 20 7 11 1008.7 - 0.0
08/09:30pm 33.0 33.1 12.6 29 12.3 ESE 4 6 2 3 1008.0 - 0.0
08/09:00pm 32.4 33.1 12.1 29 12.2 CALM 0 0 0 0 1007.7 1005.4 0.0
08/08:30pm 32.5 33.0 11.6 28 12.4 CALM 0 0 0 0 1007.4 - 0.0
08/08:00pm 33.4 33.8 11.3 26 13.1 CALM 0 0 0 0 1007.2 - 0.0
08/07:30pm 34.9 35.1 10.7 23 14.3 CALM 0 0 0 0 1007.0 - 0.0
08/07:00pm 36.8 35.8 10.9 21 15.5 NE 7 11 4 6 1006.6 - 0.0
08/06:30pm 37.6 35.8 10.8 20 16.0 ENE 11 13 6 7 1006.3 - 0.0
08/06:00pm 37.9 36.8 11.8 21 15.9 N 9 13 5 7 1006.1 1003.9 0.0
08/05:30pm 37.9 36.4 11.8 21 15.9 ENE 11 19 6 10 1006.0 - 0.0
08/05:00pm 38.2 37.9 12.7 21 15.7 NNE 6 11 3 6 1005.8 - 0.0
08/04:30pm 38.7 38.1 12.4 20 16.2 E 7 20 4 11 1005.7 - 0.0
08/04:00pm 38.9 38.0 12.6 21 16.2 ENE 9 19 5 10 1005.9 - 0.0
08/03:30pm 38.7 37.4 12.4 20 16.2 NNW 11 19 6 10 1006.3 - 0.0
08/03:00pm 37.7 36.7 12.3 22 15.6 SW 9 17 5 9 1006.8 1004.6 0.0
08/02:30pm 37.8 35.7 12.4 22 15.6 NNE 15 22 8 12 1007.1 - 0.0
08/02:00pm 37.1 34.8 11.8 22 15.3 NE 15 26 8 14 1007.7 - 0.0
08/01:30pm 36.8 35.4 10.9 21 15.5 NNE 9 17 5 9 1008.2 - 0.0
08/01:00pm 36.2 34.3 11.8 23 14.7 N 13 20 7 11 1008.6 - 0.0
08/12:30pm 35.3 33.2 12.3 25 13.9 NE 15 22 8 12 1009.2 - 0.0
08/12:00pm 35.3 34.9 14.0 28 13.3 SSE 9 15 5 8 1009.6 1007.4 0.0
08/11:30am 34.1 34.6 15.1 32 11.9 ENE 6 13 3 7 1010.1 - 0.0
08/11:00am 32.9 33.0 15.4 35 11.0 SE 9 20 5 11 1010.8 - 0.0
08/10:30am 32.7 32.6 16.1 37 10.5 E 11 20 6 11 1011.3 - 0.0
08/10:00am 31.7 31.4 16.4 39 9.7 NE 13 20 7 11 1011.5 - 0.0
08/09:30am 30.6 29.8 17.0 44 8.7 NNE 17 24 9 13 1012.0 - 0.0
08/09:00am 30.5 31.3 18.2 47 8.0 ENE 11 22 6 12 1012.2 1010.0 0.0
08/08:30am 28.8 29.2 18.9 55 6.5 ENE 15 28 8 15 1012.3 - 0.0
08/08:00am 27.4 27.7 18.7 59 5.6 ENE 15 20 8 11 1012.4 - 0.0
08/07:30am 26.6 27.8 19.0 63 4.9 E 11 17 6 9 1012.4 - 0.0
08/07:00am 25.9 27.6 19.3 67 4.3 E 9 15 5 8 1012.3 - 0.0
08/06:30am 25.2 27.3 19.3 70 3.8 E 7 11 4 6 1012.3 - 0.0
08/06:00am 24.1 25.8 19.4 75 3.0 ESE 9 11 5 6 1011.9 1009.7 0.0
08/05:30am 24.2 25.5 19.3 74 3.2 E 11 15 6 8 1011.3 - 0.0
08/05:00am 24.4 25.3 19.2 73 3.4 E 13 19 7 10 1010.7 - 0.0
08/04:30am 24.8 25.4 19.4 72 3.5 E 15 20 8 11 1010.5 - 0.0
08/04:00am 25.2 25.4 19.3 70 3.8 ENE 17 26 9 14 1010.2 - 0.0
08/03:30am 25.6 25.4 19.3 68 4.1 ENE 19 28 10 15 1009.9 - 0.0
08/03:00am 26.2 26.7 19.3 65 4.5 E 15 19 8 10 1009.8 1007.6 0.0
08/02:30am 26.5 27.7 19.1 64 4.8 E 11 17 6 9 1010.0 - 0.0
08/02:00am 27.2 27.6 19.0 61 5.3 E 15 22 8 12 1010.0 - 0.0
08/01:30am 27.4 27.9 18.4 58 5.8 E 13 20 7 11 1010.0 - 0.0
08/01:00am 28.5 28.3 18.6 55 6.4 ENE 17 28 9 15 1010.2 - 0.0
08/12:30am 29.2 28.9 18.3 51 7.1 ENE 17 22 9 12 1010.4 - 0.0
08/12:00am 29.8 30.9 17.9 48 7.7 E 9 17 5 9 1010.6 1008.4 0.0
 
Date/Time
EST
Temp
°C
App
Temp
°C
Dew
Point
°C
Rel
Hum
%
Delta-T
°C
Wind Press
QNH
hPa
Press
MSL
hPa
Rain since
9am
mm
Dir  Spd
km/h
Gust
km/h
Spd
kts
Gust
kts
07/11:30pm 30.4 29.1 18.2 48 7.9 ENE 22 28 12 15 1010.4 - 0.0
07/11:00pm 31.1 30.3 18.1 46 8.4 ENE 19 24 10 13 1010.4 - 0.0
07/10:30pm 31.8 30.7 17.7 43 9.1 ENE 20 32 11 17 1010.2 - 0.0
07/10:00pm 32.4 31.0 17.1 40 9.8 ENE 20 33 11 18 1009.9 - 0.0
07/09:30pm 31.1 28.8 12.9 32 11.0 NE 17 24 9 13 1009.4 - 0.0
07/09:00pm 30.6 31.1 11.5 30 11.3 CALM 0 0 0 0 1008.7 1006.5 0.0
07/08:30pm 31.2 30.4 11.1 29 11.8 S 6 7 3 4 1008.5 - 0.0
07/08:00pm 32.8 32.3 10.8 26 12.9 E 4 6 2 3 1008.3 - 0.0
07/07:30pm 34.6 33.4 10.4 23 14.2 NE 7 9 4 5 1008.2 - 0.0
07/07:00pm 35.8 33.8 10.1 21 15.1 NE 11 13 6 7 1008.1 - 0.0
07/06:30pm 36.9 34.5 10.2 20 15.8 NE 13 17 7 9 1007.9 - 0.0
07/06:00pm 37.3 34.4 9.8 19 16.2 ENE 15 20 8 11 1007.9 1005.6 0.0
07/05:30pm 37.6 33.8 9.2 18 16.6 ENE 19 26 10 14 1007.8 - 0.0
07/05:00pm 37.8 35.4 8.6 17 16.9 NE 11 20 6 11 1007.7 - 0.0
07/04:30pm 38.4 34.4 8.1 16 17.5 ENE 19 28 10 15 1007.6 - 0.0
07/04:00pm 37.8 35.6 7.7 16 17.2 ENE 9 17 5 9 1007.7 - 0.0
07/03:30pm 37.6 35.0 9.2 18 16.6 NE 13 22 7 12 1008.1 - 0.0
07/03:00pm 38.0 35.7 10.4 19 16.5 NE 13 20 7 11 1008.5 1006.3 0.0
07/02:30pm 37.1 35.0 11.1 21 15.6 NNE 13 22 7 12 1009.1 - 0.0
07/02:00pm 36.2 35.1 11.8 23 14.7 ENE 9 17 5 9 1009.8 - 0.0
07/01:30pm 36.2 35.4 11.8 23 14.7 N 7 13 4 7 1010.3 - 0.0
07/01:00pm 34.7 33.7 12.4 26 13.5 NE 9 13 5 7 1010.8 - 0.0
07/12:30pm 34.5 33.7 12.8 27 13.2 SSE 9 15 5 8 1011.2 - 0.0
07/12:00pm 32.6 31.8 12.8 30 12.0 NE 9 20 5 11 1011.8 1009.6 0.0
07/11:30am 32.3 31.7 13.5 32 11.5 ENE 9 17 5 9 1012.4 - 0.0
07/11:00am 31.2 30.4 13.9 35 10.6 NE 11 20 6 11 1013.0 - 0.0
07/10:30am 30.7 30.6 13.9 36 10.3 E 7 15 4 8 1013.4 - 0.0
07/10:00am 29.4 28.9 14.8 41 9.0 NE 11 17 6 9 1013.5 - 0.0
07/09:30am 29.1 28.3 15.2 42 8.6 ENE 13 17 7 9 1013.7 - 0.0
07/09:00am 28.1 27.4 15.4 46 7.9 ENE 13 24 7 13 1013.6 1011.4 0.0
07/08:30am 27.0 25.8 16.0 51 6.8 ENE 17 24 9 13 1013.5 - 0.0
07/08:00am 27.2 25.7 16.2 51 6.9 ENE 19 26 10 14 1013.6 - 0.0
07/07:30am 25.7 24.7 15.7 54 6.2 E 15 24 8 13 1013.6 - 0.0
07/07:00am 24.9 24.8 16.1 58 5.4 E 11 15 6 8 1013.6 - 0.0
07/06:30am 24.2 24.3 16.5 62 4.8 ENE 11 15 6 8 1013.2 - 0.0
07/06:00am 23.6 24.1 16.6 65 4.3 NE 9 13 5 7 1012.6 1010.4 0.0
07/05:30am 23.5 23.1 16.1 63 4.5 ENE 13 15 7 8 1012.0 - 0.0
07/05:00am 23.9 23.4 15.9 61 4.9 NE 13 19 7 10 1011.6 - 0.0
07/04:30am 24.2 22.9 15.7 59 5.2 ENE 17 20 9 11 1011.2 - 0.0
07/04:00am 24.5 23.0 15.4 57 5.6 NE 17 20 9 11 1010.8 - 0.0
07/03:30am 25.0 22.8 15.0 53 6.1 NE 20 26 11 14 1010.5 - 0.0
07/03:00am 25.7 23.6 14.8 51 6.6 ENE 19 24 10 13 1010.3 1008.1 0.0
07/02:30am 26.3 24.5 14.4 48 7.2 ENE 17 24 9 13 1010.0 - 0.0
07/02:00am 26.8 24.2 13.2 43 8.1 ENE 19 26 10 14 1009.8 - 0.0
07/01:30am 27.4 24.6 11.4 37 9.3 E 17 24 9 13 1009.9 - 0.0
07/01:00am 28.2 24.8 9.0 30 10.7 E 17 22 9 12 1010.0 - 0.0
07/12:30am 28.9 25.4 8.6 28 11.3 E 17 26 9 14 1010.3 - 0.0
07/12:00am 29.8 25.5 7.1 24 12.4 E 19 30 10 16 1010.4 1008.2 0.0
 
Date/Time
EST
Temp
°C
App
Temp
°C
Dew
Point
°C
Rel
Hum
%
Delta-T
°C
Wind Press
QNH
hPa
Press
MSL
hPa
Rain since
9am
mm
Dir  Spd
km/h
Gust
km/h
Spd
kts
Gust
kts
06/11:30pm 30.4 26.1 7.0 23 12.8 ENE 19 26 10 14 1010.5 - 0.0
06/11:00pm 31.2 27.6 8.2 24 12.9 E 17 28 9 15 1010.8 - 0.0
06/10:30pm 32.0 27.3 7.6 22 13.6 E 22 32 12 17 1010.8 - 0.0
06/10:00pm 32.7 28.5 8.2 22 13.8 E 20 37 11 20 1010.8 - 0.0
06/09:30pm 33.3 29.4 9.4 23 13.8 E 20 32 11 17 1010.5 - 0.0
06/09:00pm 33.9 30.0 8.5 21 14.5 E 19 32 10 17 1010.1 1007.9 0.0
06/08:30pm 34.5 31.6 9.7 22 14.4 E 15 24 8 13 1009.8 - 0.0
06/08:00pm 35.2 31.5 9.6 21 14.9 E 19 26 10 14 1009.5 - 0.0
06/07:30pm 35.7 32.9 10.0 21 15.1 E 15 26 8 14 1009.3 - 0.0
06/07:00pm 36.4 33.2 9.8 20 15.6 E 17 26 9 14 1008.9 - 0.0
06/06:30pm 37.1 33.4 8.0 17 16.7 E 17 24 9 13 1008.6 - 0.0
06/06:00pm 37.7 33.3 7.6 16 17.2 E 20 30 11 16 1008.4 1006.2 0.0

Other Formats:

Comma delimited format used in spreadsheet applications
http://www.bom.gov.au/fwo/IDQ60801/IDQ60801.94274.axf

JavaScript Object Notation format (JSON) in row-major order
http://www.bom.gov.au/fwo/IDQ60801/IDQ60801.94274.json